sensor_id;sensor_type;location;lat;lon;timestamp;P1;durP1;ratioP1;P2;durP2;ratioP2
21233;SDS011;10774;42.178;26.578;2023-04-22T00:00:02;12.18;;;4.20;;
21233;SDS011;10774;42.178;26.578;2023-04-22T00:02:28;10.55;;;4.00;;
21233;SDS011;10774;42.178;26.578;2023-04-22T00:04:54;9.95;;;3.58;;
21233;SDS011;10774;42.178;26.578;2023-04-22T00:07:21;11.65;;;3.72;;
21233;SDS011;10774;42.178;26.578;2023-04-22T00:09:47;9.20;;;3.53;;
21233;SDS011;10774;42.178;26.578;2023-04-22T00:12:12;6.47;;;3.40;;
21233;SDS011;10774;42.178;26.578;2023-04-22T00:14:38;10.52;;;3.97;;
21233;SDS011;10774;42.178;26.578;2023-04-22T00:17:03;8.50;;;4.00;;
21233;SDS011;10774;42.178;26.578;2023-04-22T00:19:30;13.43;;;4.75;;
21233;SDS011;10774;42.178;26.578;2023-04-22T00:21:57;8.90;;;4.20;;
21233;SDS011;10774;42.178;26.578;2023-04-22T00:24:22;9.57;;;4.78;;
21233;SDS011;10774;42.178;26.578;2023-04-22T00:26:47;12.18;;;4.85;;
21233;SDS011;10774;42.178;26.578;2023-04-22T00:29:13;12.32;;;4.60;;
21233;SDS011;10774;42.178;26.578;2023-04-22T00:31:38;7.93;;;4.32;;
21233;SDS011;10774;42.178;26.578;2023-04-22T00:34:04;7.60;;;4.53;;
21233;SDS011;10774;42.178;26.578;2023-04-22T00:36:29;11.43;;;5.10;;
21233;SDS011;10774;42.178;26.578;2023-04-22T00:38:55;10.38;;;4.72;;
21233;SDS011;10774;42.178;26.578;2023-04-22T00:41:21;17.45;;;4.57;;
21233;SDS011;10774;42.178;26.578;2023-04-22T00:43:47;9.90;;;4.35;;
21233;SDS011;10774;42.178;26.578;2023-04-22T00:46:14;12.55;;;4.90;;
21233;SDS011;10774;42.178;26.578;2023-04-22T00:48:40;10.63;;;5.05;;
21233;SDS011;10774;42.178;26.578;2023-04-22T00:51:06;89.90;;;24.50;;
21233;SDS011;10774;42.178;26.578;2023-04-22T00:53:31;13.88;;;5.72;;
21233;SDS011;10774;42.178;26.578;2023-04-22T00:55:57;10.23;;;4.80;;
21233;SDS011;10774;42.178;26.578;2023-04-22T00:58:25;8.88;;;4.63;;
21233;SDS011;10774;42.178;26.578;2023-04-22T01:00:53;10.68;;;4.15;;
21233;SDS011;10774;42.178;26.578;2023-04-22T01:03:19;8.15;;;4.00;;
21233;SDS011;10774;42.178;26.578;2023-04-22T01:05:46;9.63;;;4.28;;
21233;SDS011;10774;42.178;26.578;2023-04-22T01:08:12;6.10;;;4.05;;
21233;SDS011;10774;42.178;26.578;2023-04-22T01:10:39;6.03;;;3.88;;
21233;SDS011;10774;42.178;26.578;2023-04-22T01:13:05;8.93;;;3.85;;
21233;SDS011;10774;42.178;26.578;2023-04-22T01:15:30;12.15;;;3.80;;
21233;SDS011;10774;42.178;26.578;2023-04-22T01:17:56;10.13;;;4.30;;
21233;SDS011;10774;42.178;26.578;2023-04-22T01:20:23;10.88;;;4.10;;
21233;SDS011;10774;42.178;26.578;2023-04-22T01:22:53;11.25;;;4.45;;
21233;SDS011;10774;42.178;26.578;2023-04-22T01:25:20;8.02;;;4.28;;
21233;SDS011;10774;42.178;26.578;2023-04-22T01:27:46;12.43;;;4.38;;
21233;SDS011;10774;42.178;26.578;2023-04-22T01:30:11;11.38;;;4.10;;
21233;SDS011;10774;42.178;26.578;2023-04-22T01:32:37;8.30;;;3.72;;
21233;SDS011;10774;42.178;26.578;2023-04-22T01:35:04;8.23;;;5.20;;
21233;SDS011;10774;42.178;26.578;2023-04-22T01:37:30;10.10;;;5.20;;
21233;SDS011;10774;42.178;26.578;2023-04-22T01:39:56;11.48;;;4.65;;
21233;SDS011;10774;42.178;26.578;2023-04-22T01:42:23;10.68;;;5.28;;
21233;SDS011;10774;42.178;26.578;2023-04-22T01:44:49;14.48;;;6.38;;
21233;SDS011;10774;42.178;26.578;2023-04-22T01:47:14;12.38;;;6.32;;
21233;SDS011;10774;42.178;26.578;2023-04-22T01:49:40;14.68;;;5.90;;
21233;SDS011;10774;42.178;26.578;2023-04-22T01:52:05;9.25;;;5.78;;
21233;SDS011;10774;42.178;26.578;2023-04-22T01:54:31;13.60;;;7.40;;
21233;SDS011;10774;42.178;26.578;2023-04-22T01:56:57;13.20;;;7.00;;
21233;SDS011;10774;42.178;26.578;2023-04-22T01:59:23;13.90;;;7.88;;
21233;SDS011;10774;42.178;26.578;2023-04-22T02:01:48;15.88;;;7.38;;
21233;SDS011;10774;42.178;26.578;2023-04-22T02:04:14;13.70;;;6.70;;
21233;SDS011;10774;42.178;26.578;2023-04-22T02:06:39;16.30;;;7.97;;
21233;SDS011;10774;42.178;26.578;2023-04-22T02:09:05;8.00;;;5.03;;
21233;SDS011;10774;42.178;26.578;2023-04-22T02:11:30;9.38;;;4.40;;
21233;SDS011;10774;42.178;26.578;2023-04-22T02:13:56;12.57;;;4.82;;
21233;SDS011;10774;42.178;26.578;2023-04-22T02:16:22;10.13;;;5.55;;
21233;SDS011;10774;42.178;26.578;2023-04-22T02:18:47;20.33;;;11.02;;
21233;SDS011;10774;42.178;26.578;2023-04-22T02:21:13;15.90;;;10.48;;
21233;SDS011;10774;42.178;26.578;2023-04-22T02:23:39;12.23;;;7.32;;
21233;SDS011;10774;42.178;26.578;2023-04-22T02:26:05;14.88;;;6.20;;
21233;SDS011;10774;42.178;26.578;2023-04-22T02:28:31;9.98;;;5.10;;
21233;SDS011;10774;42.178;26.578;2023-04-22T02:30:57;17.30;;;4.57;;
21233;SDS011;10774;42.178;26.578;2023-04-22T02:33:22;11.25;;;3.92;;
21233;SDS011;10774;42.178;26.578;2023-04-22T02:35:47;11.65;;;3.42;;
21233;SDS011;10774;42.178;26.578;2023-04-22T02:38:13;8.05;;;3.90;;
21233;SDS011;10774;42.178;26.578;2023-04-22T02:40:38;9.45;;;4.63;;
21233;SDS011;10774;42.178;26.578;2023-04-22T02:43:04;10.68;;;5.40;;
21233;SDS011;10774;42.178;26.578;2023-04-22T02:45:29;8.98;;;5.10;;
21233;SDS011;10774;42.178;26.578;2023-04-22T02:47:55;12.85;;;6.25;;
21233;SDS011;10774;42.178;26.578;2023-04-22T02:50:20;11.15;;;6.75;;
21233;SDS011;10774;42.178;26.578;2023-04-22T02:52:46;10.02;;;6.38;;
21233;SDS011;10774;42.178;26.578;2023-04-22T02:55:11;21.30;;;6.80;;
21233;SDS011;10774;42.178;26.578;2023-04-22T02:57:37;10.27;;;5.97;;
21233;SDS011;10774;42.178;26.578;2023-04-22T03:00:02;15.43;;;7.97;;
21233;SDS011;10774;42.178;26.578;2023-04-22T03:02:28;13.23;;;8.25;;
21233;SDS011;10774;42.178;26.578;2023-04-22T03:04:54;8.15;;;7.10;;
21233;SDS011;10774;42.178;26.578;2023-04-22T03:07:19;16.60;;;8.32;;
21233;SDS011;10774;42.178;26.578;2023-04-22T03:09:45;10.10;;;6.95;;
21233;SDS011;10774;42.178;26.578;2023-04-22T03:12:10;12.68;;;6.50;;
21233;SDS011;10774;42.178;26.578;2023-04-22T03:14:36;7.38;;;6.38;;
21233;SDS011;10774;42.178;26.578;2023-04-22T03:17:01;11.77;;;7.40;;
21233;SDS011;10774;42.178;26.578;2023-04-22T03:19:27;8.05;;;6.80;;
21233;SDS011;10774;42.178;26.578;2023-04-22T03:21:52;14.10;;;6.75;;
21233;SDS011;10774;42.178;26.578;2023-04-22T03:24:17;9.45;;;6.30;;
21233;SDS011;10774;42.178;26.578;2023-04-22T03:26:43;8.20;;;6.20;;
21233;SDS011;10774;42.178;26.578;2023-04-22T03:29:08;9.73;;;7.70;;
21233;SDS011;10774;42.178;26.578;2023-04-22T03:31:34;26.90;;;19.75;;
21233;SDS011;10774;42.178;26.578;2023-04-22T03:34:01;29.13;;;22.60;;
21233;SDS011;10774;42.178;26.578;2023-04-22T03:36:27;26.98;;;19.00;;
21233;SDS011;10774;42.178;26.578;2023-04-22T03:38:52;46.00;;;24.75;;
21233;SDS011;10774;42.178;26.578;2023-04-22T03:41:18;67.13;;;36.40;;
21233;SDS011;10774;42.178;26.578;2023-04-22T03:43:43;69.07;;;36.97;;
21233;SDS011;10774;42.178;26.578;2023-04-22T03:46:09;32.20;;;19.90;;
21233;SDS011;10774;42.178;26.578;2023-04-22T03:48:34;21.15;;;16.10;;
21233;SDS011;10774;42.178;26.578;2023-04-22T03:51:03;45.25;;;20.23;;
21233;SDS011;10774;42.178;26.578;2023-04-22T03:53:28;66.05;;;31.17;;
21233;SDS011;10774;42.178;26.578;2023-04-22T03:55:54;33.92;;;18.50;;
21233;SDS011;10774;42.178;26.578;2023-04-22T03:58:19;38.25;;;19.20;;
21233;SDS011;10774;42.178;26.578;2023-04-22T04:00:45;33.25;;;21.00;;
21233;SDS011;10774;42.178;26.578;2023-04-22T04:03:10;28.17;;;17.90;;
21233;SDS011;10774;42.178;26.578;2023-04-22T04:05:36;30.67;;;20.00;;
21233;SDS011;10774;42.178;26.578;2023-04-22T04:08:01;25.38;;;15.80;;
21233;SDS011;10774;42.178;26.578;2023-04-22T04:10:27;43.53;;;27.50;;
21233;SDS011;10774;42.178;26.578;2023-04-22T04:12:52;33.20;;;19.42;;
21233;SDS011;10774;42.178;26.578;2023-04-22T04:15:18;15.40;;;12.52;;
21233;SDS011;10774;42.178;26.578;2023-04-22T04:17:45;11.13;;;9.43;;
21233;SDS011;10774;42.178;26.578;2023-04-22T04:20:12;7.28;;;6.57;;
21233;SDS011;10774;42.178;26.578;2023-04-22T04:22:38;9.82;;;7.22;;
21233;SDS011;10774;42.178;26.578;2023-04-22T04:25:04;10.88;;;9.77;;
21233;SDS011;10774;42.178;26.578;2023-04-22T04:27:30;14.95;;;9.35;;
21233;SDS011;10774;42.178;26.578;2023-04-22T04:29:56;25.70;;;15.52;;
21233;SDS011;10774;42.178;26.578;2023-04-22T04:32:22;15.10;;;11.82;;
21233;SDS011;10774;42.178;26.578;2023-04-22T04:34:48;12.52;;;8.40;;
21233;SDS011;10774;42.178;26.578;2023-04-22T04:37:14;9.20;;;7.35;;
21233;SDS011;10774;42.178;26.578;2023-04-22T04:39:41;11.98;;;8.13;;
21233;SDS011;10774;42.178;26.578;2023-04-22T04:42:07;7.90;;;7.05;;
21233;SDS011;10774;42.178;26.578;2023-04-22T04:44:33;7.35;;;6.32;;
21233;SDS011;10774;42.178;26.578;2023-04-22T04:46:59;10.85;;;6.63;;
21233;SDS011;10774;42.178;26.578;2023-04-22T04:49:25;15.23;;;7.32;;
21233;SDS011;10774;42.178;26.578;2023-04-22T04:51:51;9.13;;;7.38;;
21233;SDS011;10774;42.178;26.578;2023-04-22T04:54:16;11.77;;;7.25;;
21233;SDS011;10774;42.178;26.578;2023-04-22T04:56:42;10.57;;;7.22;;
21233;SDS011;10774;42.178;26.578;2023-04-22T04:59:07;17.17;;;12.27;;
21233;SDS011;10774;42.178;26.578;2023-04-22T05:01:33;19.70;;;14.50;;
21233;SDS011;10774;42.178;26.578;2023-04-22T05:03:59;21.60;;;16.75;;
21233;SDS011;10774;42.178;26.578;2023-04-22T05:06:24;17.08;;;10.60;;
21233;SDS011;10774;42.178;26.578;2023-04-22T05:08:51;9.30;;;6.45;;
21233;SDS011;10774;42.178;26.578;2023-04-22T05:11:16;7.93;;;6.03;;
21233;SDS011;10774;42.178;26.578;2023-04-22T05:13:42;8.90;;;5.78;;
21233;SDS011;10774;42.178;26.578;2023-04-22T05:16:07;12.85;;;6.40;;
21233;SDS011;10774;42.178;26.578;2023-04-22T05:18:32;11.60;;;5.43;;
21233;SDS011;10774;42.178;26.578;2023-04-22T05:20:58;9.60;;;5.85;;
21233;SDS011;10774;42.178;26.578;2023-04-22T05:23:24;10.30;;;5.57;;
21233;SDS011;10774;42.178;26.578;2023-04-22T05:25:50;12.75;;;5.97;;
21233;SDS011;10774;42.178;26.578;2023-04-22T05:28:16;8.35;;;5.65;;
21233;SDS011;10774;42.178;26.578;2023-04-22T05:30:41;11.40;;;5.88;;
21233;SDS011;10774;42.178;26.578;2023-04-22T05:33:07;9.35;;;5.50;;
21233;SDS011;10774;42.178;26.578;2023-04-22T05:35:33;6.15;;;5.05;;
21233;SDS011;10774;42.178;26.578;2023-04-22T05:37:59;9.70;;;5.97;;
21233;SDS011;10774;42.178;26.578;2023-04-22T05:40:26;11.43;;;6.32;;
21233;SDS011;10774;42.178;26.578;2023-04-22T05:42:51;12.40;;;6.80;;
21233;SDS011;10774;42.178;26.578;2023-04-22T05:45:16;15.93;;;7.45;;
21233;SDS011;10774;42.178;26.578;2023-04-22T05:47:48;12.52;;;7.97;;
21233;SDS011;10774;42.178;26.578;2023-04-22T05:50:14;15.30;;;10.70;;
21233;SDS011;10774;42.178;26.578;2023-04-22T05:52:40;17.55;;;13.45;;
21233;SDS011;10774;42.178;26.578;2023-04-22T05:55:06;15.18;;;12.65;;
21233;SDS011;10774;42.178;26.578;2023-04-22T05:57:32;18.08;;;11.40;;
21233;SDS011;10774;42.178;26.578;2023-04-22T05:59:58;14.25;;;8.98;;
21233;SDS011;10774;42.178;26.578;2023-04-22T06:02:24;14.25;;;9.95;;
21233;SDS011;10774;42.178;26.578;2023-04-22T06:04:50;13.02;;;7.13;;
21233;SDS011;10774;42.178;26.578;2023-04-22T06:07:16;9.70;;;5.88;;
21233;SDS011;10774;42.178;26.578;2023-04-22T06:09:41;10.10;;;6.00;;
21233;SDS011;10774;42.178;26.578;2023-04-22T06:12:07;13.07;;;6.10;;
21233;SDS011;10774;42.178;26.578;2023-04-22T06:14:32;23.45;;;6.45;;
21233;SDS011;10774;42.178;26.578;2023-04-22T06:16:58;9.93;;;5.15;;
21233;SDS011;10774;42.178;26.578;2023-04-22T06:19:23;9.80;;;4.90;;
21233;SDS011;10774;42.178;26.578;2023-04-22T06:21:48;12.00;;;6.50;;
21233;SDS011;10774;42.178;26.578;2023-04-22T06:24:14;11.35;;;7.13;;
21233;SDS011;10774;42.178;26.578;2023-04-22T06:26:40;12.88;;;6.70;;
21233;SDS011;10774;42.178;26.578;2023-04-22T06:29:05;8.63;;;5.53;;
21233;SDS011;10774;42.178;26.578;2023-04-22T06:31:31;13.80;;;5.38;;
21233;SDS011;10774;42.178;26.578;2023-04-22T06:33:56;11.70;;;4.90;;
21233;SDS011;10774;42.178;26.578;2023-04-22T06:36:22;12.25;;;4.70;;
21233;SDS011;10774;42.178;26.578;2023-04-22T06:38:48;11.57;;;5.95;;
21233;SDS011;10774;42.178;26.578;2023-04-22T06:41:13;13.88;;;7.13;;
21233;SDS011;10774;42.178;26.578;2023-04-22T06:43:39;14.80;;;8.10;;
21233;SDS011;10774;42.178;26.578;2023-04-22T06:46:04;13.80;;;7.75;;
21233;SDS011;10774;42.178;26.578;2023-04-22T06:48:30;11.90;;;7.55;;
21233;SDS011;10774;42.178;26.578;2023-04-22T06:50:55;19.92;;;10.13;;
21233;SDS011;10774;42.178;26.578;2023-04-22T06:53:21;21.30;;;10.30;;
21233;SDS011;10774;42.178;26.578;2023-04-22T06:55:47;16.52;;;9.60;;
21233;SDS011;10774;42.178;26.578;2023-04-22T06:58:12;20.00;;;9.73;;
21233;SDS011;10774;42.178;26.578;2023-04-22T07:00:38;13.90;;;8.60;;
21233;SDS011;10774;42.178;26.578;2023-04-22T07:03:03;15.57;;;7.88;;
21233;SDS011;10774;42.178;26.578;2023-04-22T07:05:29;11.95;;;6.43;;
21233;SDS011;10774;42.178;26.578;2023-04-22T07:07:55;13.00;;;7.35;;
21233;SDS011;10774;42.178;26.578;2023-04-22T07:10:20;15.45;;;6.35;;
21233;SDS011;10774;42.178;26.578;2023-04-22T07:12:46;10.65;;;6.20;;
21233;SDS011;10774;42.178;26.578;2023-04-22T07:15:11;11.95;;;5.72;;
21233;SDS011;10774;42.178;26.578;2023-04-22T07:17:37;13.07;;;5.60;;
21233;SDS011;10774;42.178;26.578;2023-04-22T07:20:03;10.07;;;5.00;;
21233;SDS011;10774;42.178;26.578;2023-04-22T07:22:29;9.88;;;6.35;;
21233;SDS011;10774;42.178;26.578;2023-04-22T07:24:54;11.65;;;5.18;;
21233;SDS011;10774;42.178;26.578;2023-04-22T07:27:20;12.15;;;4.20;;
21233;SDS011;10774;42.178;26.578;2023-04-22T07:29:45;14.30;;;6.38;;
21233;SDS011;10774;42.178;26.578;2023-04-22T07:32:11;7.95;;;5.78;;
21233;SDS011;10774;42.178;26.578;2023-04-22T07:34:36;12.55;;;7.00;;
21233;SDS011;10774;42.178;26.578;2023-04-22T07:37:01;17.58;;;9.80;;
21233;SDS011;10774;42.178;26.578;2023-04-22T07:39:27;14.18;;;8.15;;
21233;SDS011;10774;42.178;26.578;2023-04-22T07:41:52;11.13;;;5.60;;
21233;SDS011;10774;42.178;26.578;2023-04-22T07:44:18;7.90;;;3.97;;
21233;SDS011;10774;42.178;26.578;2023-04-22T07:46:46;12.85;;;4.03;;
21233;SDS011;10774;42.178;26.578;2023-04-22T07:49:12;8.95;;;3.72;;
21233;SDS011;10774;42.178;26.578;2023-04-22T07:51:38;11.55;;;4.38;;
21233;SDS011;10774;42.178;26.578;2023-04-22T07:54:04;8.48;;;3.63;;
21233;SDS011;10774;42.178;26.578;2023-04-22T07:56:29;4.78;;;3.17;;
21233;SDS011;10774;42.178;26.578;2023-04-22T07:58:55;8.48;;;3.20;;
21233;SDS011;10774;42.178;26.578;2023-04-22T08:01:20;7.75;;;3.47;;
21233;SDS011;10774;42.178;26.578;2023-04-22T08:03:46;7.90;;;3.58;;
21233;SDS011;10774;42.178;26.578;2023-04-22T08:06:11;5.38;;;3.47;;
21233;SDS011;10774;42.178;26.578;2023-04-22T08:08:36;5.45;;;3.13;;
21233;SDS011;10774;42.178;26.578;2023-04-22T08:11:02;7.88;;;3.65;;
21233;SDS011;10774;42.178;26.578;2023-04-22T08:13:27;8.05;;;3.78;;
21233;SDS011;10774;42.178;26.578;2023-04-22T08:15:53;6.72;;;3.75;;
21233;SDS011;10774;42.178;26.578;2023-04-22T08:18:18;7.88;;;3.67;;
21233;SDS011;10774;42.178;26.578;2023-04-22T08:20:44;11.45;;;4.68;;
21233;SDS011;10774;42.178;26.578;2023-04-22T08:23:11;7.78;;;3.22;;
21233;SDS011;10774;42.178;26.578;2023-04-22T08:25:37;9.65;;;4.72;;
21233;SDS011;10774;42.178;26.578;2023-04-22T08:28:02;8.80;;;4.72;;
21233;SDS011;10774;42.178;26.578;2023-04-22T08:30:28;7.47;;;3.20;;
21233;SDS011;10774;42.178;26.578;2023-04-22T08:32:53;6.30;;;2.47;;
21233;SDS011;10774;42.178;26.578;2023-04-22T08:35:19;6.97;;;2.70;;
21233;SDS011;10774;42.178;26.578;2023-04-22T08:37:44;14.65;;;6.68;;
21233;SDS011;10774;42.178;26.578;2023-04-22T08:40:10;15.23;;;7.20;;
21233;SDS011;10774;42.178;26.578;2023-04-22T08:42:35;11.63;;;6.68;;
21233;SDS011;10774;42.178;26.578;2023-04-22T08:45:02;9.18;;;5.40;;
21233;SDS011;10774;42.178;26.578;2023-04-22T08:47:29;11.77;;;7.53;;
21233;SDS011;10774;42.178;26.578;2023-04-22T08:49:57;7.75;;;3.17;;
21233;SDS011;10774;42.178;26.578;2023-04-22T08:52:25;15.65;;;7.90;;
21233;SDS011;10774;42.178;26.578;2023-04-22T08:54:51;16.20;;;7.30;;
21233;SDS011;10774;42.178;26.578;2023-04-22T08:57:16;8.18;;;3.35;;
21233;SDS011;10774;42.178;26.578;2023-04-22T08:59:43;5.07;;;2.90;;
21233;SDS011;10774;42.178;26.578;2023-04-22T09:02:12;12.73;;;4.47;;
21233;SDS011;10774;42.178;26.578;2023-04-22T09:04:43;12.38;;;5.38;;
21233;SDS011;10774;42.178;26.578;2023-04-22T09:07:11;8.60;;;2.67;;
21233;SDS011;10774;42.178;26.578;2023-04-22T09:09:43;4.25;;;1.88;;
21233;SDS011;10774;42.178;26.578;2023-04-22T09:12:08;2.97;;;1.83;;
21233;SDS011;10774;42.178;26.578;2023-04-22T09:14:34;2.88;;;1.80;;
21233;SDS011;10774;42.178;26.578;2023-04-22T09:17:01;6.15;;;2.60;;
21233;SDS011;10774;42.178;26.578;2023-04-22T09:19:27;5.40;;;2.45;;
21233;SDS011;10774;42.178;26.578;2023-04-22T09:21:53;3.65;;;1.70;;
21233;SDS011;10774;42.178;26.578;2023-04-22T09:24:21;4.03;;;1.73;;
21233;SDS011;10774;42.178;26.578;2023-04-22T09:26:47;9.77;;;3.03;;
21233;SDS011;10774;42.178;26.578;2023-04-22T09:29:13;8.20;;;3.10;;
21233;SDS011;10774;42.178;26.578;2023-04-22T09:31:40;13.63;;;11.98;;
21233;SDS011;10774;42.178;26.578;2023-04-22T09:34:06;9.38;;;3.65;;
21233;SDS011;10774;42.178;26.578;2023-04-22T09:36:32;7.60;;;4.60;;
21233;SDS011;10774;42.178;26.578;2023-04-22T09:39:07;13.82;;;7.95;;
21233;SDS011;10774;42.178;26.578;2023-04-22T09:41:37;4.22;;;1.73;;
21233;SDS011;10774;42.178;26.578;2023-04-22T09:44:03;5.78;;;2.95;;
21233;SDS011;10774;42.178;26.578;2023-04-22T09:46:32;4.35;;;2.97;;
21233;SDS011;10774;42.178;26.578;2023-04-22T09:48:59;7.15;;;2.90;;
21233;SDS011;10774;42.178;26.578;2023-04-22T09:51:25;4.93;;;2.30;;
21233;SDS011;10774;42.178;26.578;2023-04-22T09:56:39;5.53;;;2.25;;
21233;SDS011;10774;42.178;26.578;2023-04-22T09:59:08;3.97;;;1.80;;
21233;SDS011;10774;42.178;26.578;2023-04-22T10:01:34;6.68;;;1.85;;
21233;SDS011;10774;42.178;26.578;2023-04-22T10:04:05;5.95;;;2.42;;
21233;SDS011;10774;42.178;26.578;2023-04-22T10:06:32;6.13;;;2.65;;
21233;SDS011;10774;42.178;26.578;2023-04-22T10:09:00;5.70;;;2.35;;
21233;SDS011;10774;42.178;26.578;2023-04-22T10:11:26;4.47;;;2.53;;
21233;SDS011;10774;42.178;26.578;2023-04-22T10:13:54;5.15;;;3.50;;
21233;SDS011;10774;42.178;26.578;2023-04-22T10:16:20;5.15;;;3.00;;
21233;SDS011;10774;42.178;26.578;2023-04-22T10:18:48;4.18;;;2.08;;
21233;SDS011;10774;42.178;26.578;2023-04-22T10:21:17;6.28;;;2.28;;
21233;SDS011;10774;42.178;26.578;2023-04-22T10:23:49;9.25;;;2.55;;
21233;SDS011;10774;42.178;26.578;2023-04-22T10:29:12;6.45;;;2.40;;
21233;SDS011;10774;42.178;26.578;2023-04-22T10:31:41;6.20;;;3.03;;
21233;SDS011;10774;42.178;26.578;2023-04-22T10:34:12;5.82;;;2.90;;
21233;SDS011;10774;42.178;26.578;2023-04-22T10:36:52;5.18;;;2.20;;
21233;SDS011;10774;42.178;26.578;2023-04-22T10:39:19;5.00;;;1.92;;
21233;SDS011;10774;42.178;26.578;2023-04-22T10:41:52;5.72;;;2.90;;
21233;SDS011;10774;42.178;26.578;2023-04-22T10:44:20;9.25;;;2.45;;
21233;SDS011;10774;42.178;26.578;2023-04-22T10:49:23;8.27;;;2.88;;
21233;SDS011;10774;42.178;26.578;2023-04-22T10:59:29;6.47;;;2.42;;
21233;SDS011;10774;42.178;26.578;2023-04-22T11:01:59;13.32;;;4.75;;
21233;SDS011;10774;42.178;26.578;2023-04-22T11:04:26;7.30;;;2.50;;
21233;SDS011;10774;42.178;26.578;2023-04-22T11:09:42;6.32;;;3.10;;
21233;SDS011;10774;42.178;26.578;2023-04-22T11:17:51;10.35;;;3.28;;
21233;SDS011;10774;42.178;26.578;2023-04-22T11:20:18;8.43;;;3.05;;
21233;SDS011;10774;42.178;26.578;2023-04-22T11:22:46;5.45;;;1.90;;
21233;SDS011;10774;42.178;26.578;2023-04-22T11:25:16;9.48;;;2.30;;
21233;SDS011;10774;42.178;26.578;2023-04-22T11:27:43;7.30;;;2.20;;
21233;SDS011;10774;42.178;26.578;2023-04-22T11:30:10;7.40;;;2.15;;
21233;SDS011;10774;42.178;26.578;2023-04-22T11:32:40;12.20;;;3.10;;
21233;SDS011;10774;42.178;26.578;2023-04-22T11:35:14;11.60;;;3.80;;
21233;SDS011;10774;42.178;26.578;2023-04-22T11:37:50;13.20;;;4.15;;
21233;SDS011;10774;42.178;26.578;2023-04-22T11:40:20;11.13;;;4.05;;
21233;SDS011;10774;42.178;26.578;2023-04-22T11:42:49;8.70;;;4.38;;
21233;SDS011;10774;42.178;26.578;2023-04-22T11:45:15;13.23;;;5.53;;
21233;SDS011;10774;42.178;26.578;2023-04-22T11:47:41;9.38;;;4.25;;
21233;SDS011;10774;42.178;26.578;2023-04-22T11:50:08;7.20;;;3.97;;
21233;SDS011;10774;42.178;26.578;2023-04-22T11:52:42;13.02;;;5.35;;
21233;SDS011;10774;42.178;26.578;2023-04-22T11:55:32;11.55;;;5.82;;
21233;SDS011;10774;42.178;26.578;2023-04-22T11:58:00;13.63;;;6.80;;
21233;SDS011;10774;42.178;26.578;2023-04-22T12:00:48;13.15;;;7.45;;
21233;SDS011;10774;42.178;26.578;2023-04-22T12:03:18;12.80;;;6.25;;
21233;SDS011;10774;42.178;26.578;2023-04-22T12:05:52;10.45;;;6.90;;
21233;SDS011;10774;42.178;26.578;2023-04-22T12:08:20;12.65;;;5.18;;
21233;SDS011;10774;42.178;26.578;2023-04-22T12:10:54;10.20;;;5.97;;
21233;SDS011;10774;42.178;26.578;2023-04-22T12:13:22;11.02;;;8.32;;
21233;SDS011;10774;42.178;26.578;2023-04-22T12:16:38;15.40;;;6.97;;
21233;SDS011;10774;42.178;26.578;2023-04-22T12:18:40;14.43;;;5.32;;
21233;SDS011;10774;42.178;26.578;2023-04-22T12:21:13;13.27;;;7.57;;
21233;SDS011;10774;42.178;26.578;2023-04-22T12:23:49;11.50;;;7.05;;
21233;SDS011;10774;42.178;26.578;2023-04-22T12:26:17;14.30;;;8.80;;
21233;SDS011;10774;42.178;26.578;2023-04-22T12:28:43;12.50;;;7.20;;
21233;SDS011;10774;42.178;26.578;2023-04-22T12:31:10;14.13;;;6.60;;
21233;SDS011;10774;42.178;26.578;2023-04-22T12:33:36;9.90;;;6.45;;
21233;SDS011;10774;42.178;26.578;2023-04-22T12:36:02;12.80;;;8.25;;
21233;SDS011;10774;42.178;26.578;2023-04-22T12:38:28;12.48;;;8.00;;
21233;SDS011;10774;42.178;26.578;2023-04-22T12:40:54;17.73;;;11.30;;
21233;SDS011;10774;42.178;26.578;2023-04-22T12:43:20;11.93;;;7.75;;
21233;SDS011;10774;42.178;26.578;2023-04-22T12:45:45;16.00;;;9.23;;
21233;SDS011;10774;42.178;26.578;2023-04-22T12:48:11;20.90;;;11.15;;
21233;SDS011;10774;42.178;26.578;2023-04-22T12:50:36;14.18;;;8.65;;
21233;SDS011;10774;42.178;26.578;2023-04-22T12:53:02;8.45;;;5.32;;
21233;SDS011;10774;42.178;26.578;2023-04-22T12:55:27;11.00;;;3.88;;
21233;SDS011;10774;42.178;26.578;2023-04-22T12:57:55;7.80;;;4.30;;
21233;SDS011;10774;42.178;26.578;2023-04-22T13:00:21;5.65;;;3.45;;
21233;SDS011;10774;42.178;26.578;2023-04-22T13:02:48;7.43;;;4.68;;
21233;SDS011;10774;42.178;26.578;2023-04-22T13:05:14;8.68;;;2.80;;
21233;SDS011;10774;42.178;26.578;2023-04-22T13:07:41;7.13;;;3.40;;
21233;SDS011;10774;42.178;26.578;2023-04-22T13:10:07;4.05;;;2.90;;
21233;SDS011;10774;42.178;26.578;2023-04-22T13:12:34;10.95;;;4.82;;
21233;SDS011;10774;42.178;26.578;2023-04-22T13:15:00;8.27;;;3.97;;
21233;SDS011;10774;42.178;26.578;2023-04-22T13:17:27;8.52;;;4.00;;
21233;SDS011;10774;42.178;26.578;2023-04-22T13:19:52;8.95;;;5.13;;
21233;SDS011;10774;42.178;26.578;2023-04-22T13:22:18;8.48;;;5.57;;
21233;SDS011;10774;42.178;26.578;2023-04-22T13:24:43;13.60;;;5.32;;
21233;SDS011;10774;42.178;26.578;2023-04-22T13:27:09;9.88;;;4.80;;
21233;SDS011;10774;42.178;26.578;2023-04-22T13:29:35;9.68;;;4.00;;
21233;SDS011;10774;42.178;26.578;2023-04-22T13:32:02;12.13;;;6.30;;
21233;SDS011;10774;42.178;26.578;2023-04-22T13:34:28;11.02;;;5.63;;
21233;SDS011;10774;42.178;26.578;2023-04-22T13:36:53;7.45;;;3.47;;
21233;SDS011;10774;42.178;26.578;2023-04-22T13:39:20;7.38;;;2.67;;
21233;SDS011;10774;42.178;26.578;2023-04-22T13:41:46;10.50;;;3.92;;
21233;SDS011;10774;42.178;26.578;2023-04-22T13:44:12;7.95;;;3.90;;
21233;SDS011;10774;42.178;26.578;2023-04-22T13:46:38;7.38;;;3.60;;
21233;SDS011;10774;42.178;26.578;2023-04-22T13:49:04;9.35;;;4.03;;
21233;SDS011;10774;42.178;26.578;2023-04-22T13:51:30;8.70;;;4.00;;
21233;SDS011;10774;42.178;26.578;2023-04-22T13:53:56;8.43;;;5.22;;
21233;SDS011;10774;42.178;26.578;2023-04-22T13:56:22;6.93;;;2.78;;
21233;SDS011;10774;42.178;26.578;2023-04-22T13:58:48;14.77;;;3.20;;
21233;SDS011;10774;42.178;26.578;2023-04-22T14:01:14;14.02;;;7.03;;
21233;SDS011;10774;42.178;26.578;2023-04-22T14:03:39;8.30;;;4.40;;
21233;SDS011;10774;42.178;26.578;2023-04-22T14:06:05;7.20;;;2.83;;
21233;SDS011;10774;42.178;26.578;2023-04-22T14:08:30;9.73;;;4.68;;
21233;SDS011;10774;42.178;26.578;2023-04-22T14:10:56;9.85;;;4.18;;
21233;SDS011;10774;42.178;26.578;2023-04-22T14:13:23;7.80;;;3.70;;
21233;SDS011;10774;42.178;26.578;2023-04-22T14:15:49;6.93;;;2.97;;
21233;SDS011;10774;42.178;26.578;2023-04-22T14:18:15;8.13;;;3.88;;
21233;SDS011;10774;42.178;26.578;2023-04-22T14:20:40;7.20;;;4.30;;
21233;SDS011;10774;42.178;26.578;2023-04-22T14:23:09;5.45;;;3.20;;
21233;SDS011;10774;42.178;26.578;2023-04-22T14:25:35;7.60;;;3.88;;
21233;SDS011;10774;42.178;26.578;2023-04-22T14:28:01;7.63;;;3.38;;
21233;SDS011;10774;42.178;26.578;2023-04-22T14:30:27;10.13;;;3.70;;
21233;SDS011;10774;42.178;26.578;2023-04-22T14:32:53;9.25;;;3.60;;
21233;SDS011;10774;42.178;26.578;2023-04-22T14:35:18;9.35;;;4.15;;
21233;SDS011;10774;42.178;26.578;2023-04-22T14:37:44;11.13;;;6.18;;
21233;SDS011;10774;42.178;26.578;2023-04-22T14:40:09;10.02;;;5.07;;
21233;SDS011;10774;42.178;26.578;2023-04-22T14:42:36;10.07;;;5.22;;
21233;SDS011;10774;42.178;26.578;2023-04-22T14:45:02;26.45;;;13.50;;